Time;durP1;ratioP1;P1;durP2;ratioP2;P2;SDS_P1;SDS_P2;PMS_P1;PMS_P2;Temp;Humidity;BMP_temperature;BMP_pressure;BME280_temperature;BME280_humidity;BME280_pressure;Samples;Min_cycle;Max_cycle;Signal;HPM_P1;HPM_P2
2023/10/13 00:02:01;;;;;;;364.93;332.30;;;;;;;15.87;100.00;100087.41;4990677;28;20245;-66
2023/10/13 00:04:32;;;;;;;366.73;336.03;;;;;;;15.91;100.00;100085.41;4992465;28;20203;-66
2023/10/13 00:06:58;;;;;;;361.60;329.93;;;;;;;15.84;100.00;100086.81;4991713;28;20180;-65
2023/10/13 00:09:25;;;;;;;315.50;289.83;;;;;;;15.86;100.00;100075.38;4992811;28;20190;-67
2023/10/13 00:11:52;;;;;;;386.90;351.83;;;;;;;15.86;100.00;100074.56;4976580;28;20238;-65
2023/10/13 00:14:20;;;;;;;393.40;357.53;;;;;;;15.86;100.00;100067.59;5000389;28;20191;-66
2023/10/13 00:17:00;;;;;;;393.73;359.77;;;;;;;15.87;100.00;100074.44;5000310;28;20207;-63
2023/10/13 00:19:28;;;;;;;324.77;297.37;;;;;;;15.76;100.00;100067.47;4991414;28;20631;-64
2023/10/13 00:21:56;;;;;;;330.23;302.57;;;;;;;15.73;100.00;100065.13;4983876;28;20242;-65
2023/10/13 00:24:23;;;;;;;348.27;317.43;;;;;;;15.73;100.00;100059.94;4993162;28;20227;-65
2023/10/13 00:26:49;;;;;;;381.77;348.50;;;;;;;15.78;100.00;100060.41;4992197;28;20256;-68
2023/10/13 00:29:17;;;;;;;397.00;360.93;;;;;;;15.82;100.00;100055.84;4991118;28;20191;-66
2023/10/13 00:31:43;;;;;;;321.87;295.80;;;;;;;15.88;100.00;100057.13;4996292;28;20222;-65
2023/10/13 00:34:19;;;;;;;369.87;337.37;;;;;;;15.73;100.00;100048.75;4988697;28;20288;-66
2023/10/13 00:36:48;;;;;;;314.23;287.83;;;;;;;15.79;100.00;100056.88;4991950;28;20171;-65
2023/10/13 00:39:15;;;;;;;376.17;341.77;;;;;;;15.86;100.00;100057.22;4988958;28;20195;-66
2023/10/13 00:41:50;;;;;;;383.40;348.80;;;;;;;15.74;100.00;100059.00;4983484;28;20242;-64
2023/10/13 00:44:16;;;;;;;344.73;315.17;;;;;;;15.84;100.00;100055.69;4993912;28;20329;-65
2023/10/13 00:46:44;;;;;;;348.57;319.30;;;;;;;15.88;100.00;100057.94;4990787;28;20636;-65
2023/10/13 00:49:15;;;;;;;345.97;317.73;;;;;;;15.74;100.00;100053.81;4991072;28;20623;-64
2023/10/13 00:51:46;;;;;;;355.80;324.63;;;;;;;15.69;100.00;100055.09;4983242;28;20218;-65
2023/10/13 00:54:12;;;;;;;294.20;269.30;;;;;;;15.68;100.00;100050.84;4990883;28;20187;-65
2023/10/13 00:56:55;;;;;;;348.50;319.80;;;;;;;15.65;100.00;100050.16;4992025;28;20180;-66
2023/10/13 00:59:25;;;;;;;211.67;196.30;;;;;;;15.68;100.00;100046.50;4992353;28;20187;-65
2023/10/13 01:01:55;;;;;;;300.73;276.17;;;;;;;15.65;100.00;100044.13;4983228;28;20740;-65
2023/10/13 01:04:23;;;;;;;307.47;282.53;;;;;;;15.54;100.00;100044.97;4990607;28;20199;-65
2023/10/13 01:06:48;;;;;;;356.47;325.80;;;;;;;15.60;100.00;100046.25;4990793;28;20225;-65
2023/10/13 01:09:16;;;;;;;392.70;357.83;;;;;;;15.67;100.00;100041.44;4991751;28;20232;-66
2023/10/13 01:11:44;;;;;;;397.53;360.97;;;;;;;15.63;100.00;100040.84;4983371;28;20226;-65
2023/10/13 01:14:17;;;;;;;399.97;364.80;;;;;;;15.58;100.00;100048.97;4994110;28;20197;-65
2023/10/13 01:16:45;;;;;;;364.63;332.83;;;;;;;15.53;100.00;100050.25;4991851;28;20219;-64
2023/10/13 01:19:18;;;;;;;407.10;370.30;;;;;;;15.61;100.00;100053.91;4990256;28;20199;-65
2023/10/13 01:21:44;;;;;;;384.67;351.30;;;;;;;15.73;100.00;100052.16;4994273;28;21008;-66
2023/10/13 01:24:13;;;;;;;381.13;348.63;;;;;;;15.80;100.00;100048.16;4993935;28;20191;-65
2023/10/13 01:26:38;;;;;;;371.73;340.03;;;;;;;15.74;100.00;100043.44;4990492;28;20222;-65
2023/10/13 01:29:14;;;;;;;366.90;333.80;;;;;;;15.77;100.00;100042.38;4991897;28;20211;-65
2023/10/13 01:31:46;;;;;;;351.70;322.27;;;;;;;15.75;100.00;100036.47;4983081;28;20226;-66
2023/10/13 01:34:21;;;;;;;344.30;312.50;;;;;;;15.61;100.00;100042.72;4990326;28;20175;-65
2023/10/13 01:36:51;;;;;;;271.97;249.70;;;;;;;15.69;100.00;100042.97;4991447;28;20183;-66
2023/10/13 01:39:18;;;;;;;274.90;252.37;;;;;;;15.73;100.00;100034.00;4990681;28;20203;-66
2023/10/13 01:41:44;;;;;;;319.10;293.07;;;;;;;15.78;100.00;100042.25;4982419;28;20293;-68
2023/10/13 01:44:14;;;;;;;337.17;309.73;;;;;;;15.82;100.00;100032.50;4995195;28;20623;-66
2023/10/13 01:46:42;;;;;;;302.80;277.77;;;;;;;15.82;100.00;100027.31;4993739;28;20183;-65
2023/10/13 01:49:07;;;;;;;327.23;300.33;;;;;;;15.79;100.00;100030.94;4995617;28;20179;-64
2023/10/13 01:51:33;;;;;;;324.00;296.63;;;;;;;15.69;100.00;100019.63;4996211;28;20755;-64
2023/10/13 01:53:58;;;;;;;377.37;342.50;;;;;;;15.79;100.00;100025.75;4999144;28;20192;-64
2023/10/13 01:56:24;;;;;;;356.77;324.87;;;;;;;15.71;100.00;100011.72;4994034;28;20194;-66
2023/10/13 01:58:50;;;;;;;308.57;284.03;;;;;;;15.80;100.00;100001.47;4995281;28;20211;-65
2023/10/13 02:01:26;;;;;;;327.90;301.17;;;;;;;15.79;100.00;99993.81;4991266;28;20265;-65
2023/10/13 02:04:01;;;;;;;307.23;281.90;;;;;;;15.79;100.00;99991.22;4989135;28;20211;-65
2023/10/13 02:06:32;;;;;;;277.53;255.80;;;;;;;15.82;100.00;99991.00;4993584;28;20294;-65
2023/10/13 02:09:02;;;;;;;294.10;271.00;;;;;;;15.84;100.00;99986.53;4993934;28;20206;-65
2023/10/13 02:11:27;;;;;;;268.37;247.30;;;;;;;15.70;100.00;99982.34;4986164;28;20226;-65
2023/10/13 02:13:56;;;;;;;354.17;324.73;;;;;;;15.65;100.00;99985.34;4999514;28;20206;-65
2023/10/13 02:16:22;;;;;;;220.73;204.60;;;;;;;15.61;100.00;99990.88;4995086;28;20172;-64
2023/10/13 02:18:50;;;;;;;283.03;261.20;;;;;;;15.61;100.00;99993.47;4994970;28;20543;-68
2023/10/13 02:21:15;;;;;;;283.73;259.73;;;;;;;15.61;100.00;99991.69;4973074;28;20227;-66
2023/10/13 02:23:45;;;;;;;291.67;267.97;;;;;;;15.62;100.00;99995.13;4993669;28;20223;-65
2023/10/13 02:26:29;;;;;;;268.80;247.43;;;;;;;15.63;100.00;99984.63;4994575;28;20176;-64
2023/10/13 02:28:57;;;;;;;283.57;260.17;;;;;;;15.56;100.00;99974.84;4994615;28;20595;-65
2023/10/13 02:31:24;;;;;;;267.77;246.87;;;;;;;15.56;100.00;99969.66;4985496;28;20218;-77
2023/10/13 02:33:49;;;;;;;251.83;232.37;;;;;;;15.56;100.00;99965.28;4992464;28;20224;-67
2023/10/13 02:36:22;;;;;;;276.70;254.47;;;;;;;15.55;100.00;99952.47;4993338;28;20533;-65
2023/10/13 02:38:47;;;;;;;255.70;236.23;;;;;;;15.40;100.00;99941.50;4992699;28;20194;-65
2023/10/13 02:42:00;;;;;;;277.00;255.67;;;;;;;15.13;100.00;99930.56;4993615;28;20714;-65
2023/10/13 02:44:00;;;;;;;142.33;132.30;;;;;;;14.93;100.00;99941.59;4994152;28;20214;-65
2023/10/13 02:46:29;;;;;;;238.93;220.60;;;;;;;15.00;100.00;99937.63;4994062;28;20242;-66
2023/10/13 02:48:55;;;;;;;218.93;202.57;;;;;;;15.04;100.00;99941.63;4984324;28;20665;-67
2023/10/13 02:51:25;;;;;;;230.13;212.93;;;;;;;15.08;100.00;99939.63;4981571;28;20234;-68
2023/10/13 02:53:52;;;;;;;236.77;218.10;;;;;;;15.19;100.00;99941.41;4986277;28;20184;-66
2023/10/13 02:56:22;;;;;;;272.40;251.30;;;;;;;15.19;100.00;99939.63;4993167;28;20186;-66
2023/10/13 02:58:53;;;;;;;299.03;274.60;;;;;;;15.14;100.00;99945.19;4993808;28;20205;-65
2023/10/13 03:01:20;;;;;;;294.47;269.90;;;;;;;15.19;100.00;99938.81;4993454;28;20238;-66
2023/10/13 03:03:53;;;;;;;324.77;297.10;;;;;;;15.24;100.00;99944.47;4991893;28;20187;-66
2023/10/13 03:06:22;;;;;;;332.80;305.27;;;;;;;15.29;100.00;99939.75;4993038;28;20194;-66
2023/10/13 03:08:47;;;;;;;358.97;328.23;;;;;;;15.28;100.00;99938.09;4992474;28;20661;-64
2023/10/13 03:11:13;;;;;;;278.27;256.13;;;;;;;15.29;100.00;99935.41;4986058;28;20360;-65
2023/10/13 03:13:44;;;;;;;288.10;265.47;;;;;;;15.29;100.00;99937.16;4998857;28;20326;-66
2023/10/13 03:16:15;;;;;;;272.50;251.13;;;;;;;15.10;100.00;99941.16;4992447;28;20261;-66
2023/10/13 03:18:51;;;;;;;252.77;232.83;;;;;;;15.26;100.00;99943.41;4980198;28;20278;-64
2023/10/13 03:21:28;;;;;;;208.77;193.03;;;;;;;15.16;100.00;99945.88;5001450;28;20304;-65
2023/10/13 03:23:54;;;;;;;165.43;153.03;;;;;;;15.13;100.00;99933.16;4997819;28;20306;-65
2023/10/13 03:26:20;;;;;;;197.13;182.53;;;;;;;15.17;100.00;99931.16;4993789;28;20207;-67
2023/10/13 03:28:51;;;;;;;197.23;182.70;;;;;;;15.16;100.00;99919.16;4993138;28;20214;-65
2023/10/13 03:31:18;;;;;;;225.80;208.77;;;;;;;15.07;100.00;99919.84;4971996;28;20226;-65
2023/10/13 03:33:45;;;;;;;235.27;216.30;;;;;;;14.94;100.00;99918.19;4999152;28;20183;-65
2023/10/13 03:36:27;;;;;;;268.37;245.67;;;;;;;14.88;100.00;99905.69;4992017;28;20207;-65
2023/10/13 03:38:54;;;;;;;196.77;181.90;;;;;;;14.91;100.00;99910.66;4993385;28;20180;-66
2023/10/13 03:41:24;;;;;;;225.23;209.07;;;;;;;15.02;100.00;99909.84;4993052;28;20318;-66
2023/10/13 03:43:52;;;;;;;236.93;219.03;;;;;;;15.11;100.00;99903.13;4997738;28;20718;-66
2023/10/13 03:46:21;;;;;;;238.47;219.43;;;;;;;15.15;100.00;99901.94;4993106;28;20270;-65
2023/10/13 03:48:54;;;;;;;242.57;223.63;;;;;;;15.18;100.00;99896.50;4991506;28;20214;-65
2023/10/13 03:51:19;;;;;;;239.40;220.63;;;;;;;14.99;100.00;99900.50;4971578;28;20280;-66
2023/10/13 03:53:54;;;;;;;262.57;241.27;;;;;;;15.13;100.00;99901.22;4985605;28;20279;-65
2023/10/13 03:56:39;;;;;;;180.53;168.37;;;;;;;15.03;100.00;99897.69;4993110;28;20260;-66
2023/10/13 03:59:06;;;;;;;163.00;151.10;;;;;;;15.04;100.00;99907.94;4993578;28;20360;-65
2023/10/13 04:01:45;;;;;;;217.00;201.43;;;;;;;15.07;100.00;99909.47;4993148;28;20243;-65
2023/10/13 04:04:12;;;;;;;189.63;175.53;;;;;;;15.01;100.00;99910.78;4991501;28;20277;-66
2023/10/13 04:17:22;;;;;;;144.37;133.93;;;;;;;14.85;100.00;99882.63;4992969;28;20382;-65
2023/10/13 04:28:14;;;;;;;166.43;154.77;;;;;;;15.11;100.00;99874.63;4992438;28;20191;-66
2023/10/13 04:36:14;;;;;;;176.40;162.97;;;;;;;15.17;100.00;99877.56;4992411;28;20247;-65
2023/10/13 04:38:56;;;;;;;134.93;124.40;;;;;;;15.06;100.00;99866.38;4990921;28;20187;-67
2023/10/13 04:41:37;;;;;;;161.87;149.90;;;;;;;15.14;100.00;99861.44;4984185;28;20253;-66
2023/10/13 04:51:58;;;;;;;198.70;183.57;;;;;;;15.10;100.00;99852.25;4995633;28;20285;-66
2023/10/13 04:54:26;;;;;;;245.13;225.43;;;;;;;15.18;100.00;99849.88;4991054;28;20187;-67
2023/10/13 04:59:37;;;;;;;229.03;210.10;;;;;;;14.99;100.00;99835.75;4992262;28;20260;-66
2023/10/13 05:51:46;;;;;;;161.53;150.10;;;;;;;15.17;100.00;99825.75;4973617;28;20227;-65
2023/10/13 06:29:48;;;;;;;268.43;246.53;;;;;;;15.73;100.00;99836.91;4994350;28;20202;-66
2023/10/13 06:32:16;;;;;;;350.90;320.70;;;;;;;15.84;100.00;99832.66;4999191;28;20219;-65
2023/10/13 06:34:44;;;;;;;397.37;361.97;;;;;;;15.91;100.00;99836.41;4991232;28;20278;-64
2023/10/13 06:37:32;;;;;;;449.53;406.97;;;;;;;16.14;100.00;99840.53;4988489;28;20191;-67
2023/10/13 06:40:06;;;;;;;321.37;294.27;;;;;;;16.55;100.00;99848.44;4993316;28;20278;-67
2023/10/13 06:42:34;;;;;;;345.33;317.83;;;;;;;16.90;100.00;99842.03;4981726;28;20218;-65
2023/10/13 06:45:08;;;;;;;352.37;324.67;;;;;;;17.15;100.00;99841.75;4990790;28;20183;-69
2023/10/13 06:47:42;;;;;;;290.73;269.80;;;;;;;17.30;100.00;99848.19;4994542;28;20619;-67
2023/10/13 06:50:15;;;;;;;256.07;236.73;;;;;;;17.53;100.00;99845.38;4983479;28;20266;-68
2023/10/13 06:52:43;;;;;;;253.80;234.77;;;;;;;17.70;100.00;99842.09;5007183;28;20647;-68
2023/10/13 06:55:17;;;;;;;245.17;227.33;;;;;;;17.81;100.00;99835.97;4993833;28;20202;-71
2023/10/13 06:57:44;;;;;;;152.40;142.23;;;;;;;17.94;100.00;99834.84;5002854;28;20184;-68
2023/10/13 07:00:19;;;;;;;179.10;166.47;;;;;;;18.02;100.00;99838.44;4977578;28;20593;-71
2023/10/13 07:02:47;;;;;;;96.07;89.40;;;;;;;17.96;100.00;99835.56;4987995;28;20204;-68
2023/10/13 07:05:13;;;;;;;111.47;104.17;;;;;;;17.89;100.00;99835.25;4993902;28;20190;-68
2023/10/13 07:07:40;;;;;;;107.33;100.23;;;;;;;17.95;100.00;99829.53;4994202;28;20176;-70
2023/10/13 07:10:11;;;;;;;119.70;111.97;;;;;;;18.00;100.00;99831.72;4983219;28;20190;-68
2023/10/13 07:12:37;;;;;;;107.83;100.77;;;;;;;18.06;100.00;99837.19;4992003;28;20282;-68
2023/10/13 07:15:10;;;;;;;90.80;84.60;;;;;;;18.16;100.00;99841.56;4994020;28;20258;-67
2023/10/13 07:17:39;;;;;;;87.80;82.60;;;;;;;18.36;100.00;99831.94;4986626;28;20187;-65
2023/10/13 07:20:15;;;;;;;90.17;84.07;;;;;;;18.68;100.00;99839.38;4982496;28;20191;-68
2023/10/13 07:22:45;;;;;;;81.13;75.93;;;;;;;19.01;100.00;99839.84;4966243;28;20185;-69
2023/10/13 07:25:18;;;;;;;18.60;11.60;;;;;;;18.65;100.00;99820.63;4992340;28;20246;-69
2023/10/13 07:27:43;;;;;;;11.00;9.13;;;;;;;19.08;100.00;99828.81;4991233;28;20278;-68
2023/10/13 07:32:37;;;;;;;16.53;8.87;;;;;;;19.75;100.00;99833.72;5006173;28;20195;-67
2023/10/13 07:35:08;;;;;;;12.60;7.63;;;;;;;19.95;100.00;99843.03;4991932;28;20694;-68
2023/10/13 07:37:33;;;;;;;17.13;6.67;;;;;;;20.23;100.00;99840.34;4980133;28;20188;-68
2023/10/13 07:39:59;;;;;;;13.90;6.33;;;;;;;20.31;100.00;99842.97;4993271;28;20250;-68
2023/10/13 07:42:31;;;;;;;11.57;6.37;;;;;;;20.42;100.00;99828.84;4996834;28;20223;-71
2023/10/13 07:44:58;;;;;;;14.60;6.50;;;;;;;20.58;100.00;99825.50;4993174;28;20211;-68
2023/10/13 07:47:26;;;;;;;13.67;6.47;;;;;;;20.35;100.00;99817.38;4992339;28;20226;-66
2023/10/13 07:49:51;;;;;;;14.53;6.07;;;;;;;20.73;100.00;99823.16;4992021;28;20657;-69
2023/10/13 07:57:30;;;;;;;12.53;5.30;;;;;;;21.08;100.00;99825.75;4992763;28;20190;-70
2023/10/13 08:00:08;;;;;;;11.60;6.23;;;;;;;20.75;100.00;99816.00;4993018;28;20191;-69
2023/10/13 08:03:07;;;;;;;20.10;6.30;;;;;;;20.63;100.00;99818.00;4980345;28;20249;-69
2023/10/13 08:05:42;;;;;;;15.40;5.43;;;;;;;20.67;100.00;99821.13;4993181;28;20191;-70
2023/10/13 08:08:14;;;;;;;9.87;5.77;;;;;;;20.78;100.00;99822.69;4990694;28;20180;-68
2023/10/13 08:10:42;;;;;;;14.20;5.77;;;;;;;20.87;100.00;99821.75;4987601;28;20271;-68
2023/10/13 08:13:12;;;;;;;14.00;6.70;;;;;;;20.94;100.00;99824.56;5003590;28;20715;-66
2023/10/13 08:15:47;;;;;;;13.03;6.93;;;;;;;21.00;100.00;99816.09;4992799;28;20187;-67
2023/10/13 08:18:31;;;;;;;10.83;6.00;;;;;;;20.84;100.00;99816.84;4991481;28;20285;-68
2023/10/13 08:21:03;;;;;;;8.80;6.10;;;;;;;20.70;100.00;99820.00;4978174;28;20259;-67
2023/10/13 08:29:49;;;;;;;17.40;7.10;;;;;;;21.15;100.00;99794.53;4990126;28;20182;-67
2023/10/13 08:32:36;;;;;;;8.80;5.83;;;;;;;21.45;100.00;99787.88;4994841;28;20773;-67
2023/10/13 08:35:23;;;;;;;12.23;5.53;;;;;;;21.97;100.00;99793.78;4990907;28;20282;-68
2023/10/13 08:42:52;;;;;;;11.20;5.83;;;;;;;22.99;100.00;99769.56;4980639;28;20745;-66
2023/10/13 08:48:07;;;;;;;12.13;5.53;;;;;;;22.65;100.00;99782.03;4992225;28;20190;-63
2023/10/13 08:50:52;;;;;;;12.70;5.63;;;;;;;22.69;100.00;99785.94;4986014;28;20313;-63
2023/10/13 08:53:32;;;;;;;11.30;5.60;;;;;;;23.06;100.00;99783.63;4988046;28;20183;-63
2023/10/13 09:04:21;;;;;;;12.63;6.05;;;;;;;24.85;100.00;99748.97;4992610;28;20211;-62
2023/10/13 09:09:34;;;;;;;12.05;5.97;;;;;;;24.33;100.00;99738.41;4992060;28;20253;-62
2023/10/13 09:12:09;;;;;;;8.68;6.35;;;;;;;24.32;100.00;99730.72;4989924;28;20230;-62
2023/10/13 09:14:44;;;;;;;10.55;5.57;;;;;;;27.49;91.57;99732.63;4991666;28;20233;-62
2023/10/13 09:17:34;;;;;;;7.38;5.30;;;;;;;28.07;79.50;99729.31;4989860;28;20314;-63
2023/10/13 09:25:35;;;;;;;16.45;5.50;;;;;;;31.98;49.32;99730.28;4984998;28;20183;-64
2023/10/13 09:28:02;;;;;;;10.20;5.28;;;;;;;31.47;51.23;99735.25;4987932;28;20261;-63
2023/10/13 09:30:31;;;;;;;12.63;5.40;;;;;;;32.37;50.15;99741.19;4980797;28;20241;-63
2023/10/13 09:33:15;;;;;;;12.32;4.75;;;;;;;32.78;46.22;99743.81;4992203;28;20183;-63
2023/10/13 09:35:43;;;;;;;16.13;5.82;;;;;;;30.93;55.53;99749.34;4982341;28;20266;-63
2023/10/13 09:38:11;;;;;;;12.18;5.55;;;;;;;30.51;58.67;99744.81;4991560;28;20279;-62
2023/10/13 09:40:46;;;;;;;14.25;5.43;;;;;;;30.03;71.97;99735.78;4985537;28;20234;-62
2023/10/13 09:43:14;;;;;;;13.75;5.93;;;;;;;29.48;68.34;99738.34;4986580;28;20190;-63
2023/10/13 09:45:43;;;;;;;12.75;6.18;;;;;;;31.82;53.54;99732.59;4990975;28;20619;-63
2023/10/13 09:48:22;;;;;;;10.30;5.28;;;;;;;31.24;57.00;99731.53;4991616;28;20203;-62
2023/10/13 09:50:53;;;;;;;9.93;5.80;;;;;;;32.46;49.85;99736.28;4983714;28;20231;-62
2023/10/13 09:53:23;;;;;;;10.88;5.82;;;;;;;30.71;57.93;99726.00;4998789;28;20183;-61
2023/10/13 09:56:00;;;;;;;11.65;5.38;;;;;;;33.09;50.00;99731.03;4991216;28;20179;-62
2023/10/13 09:58:36;;;;;;;14.50;5.75;;;;;;;33.62;44.92;99739.56;4990608;28;20186;-62
2023/10/13 10:01:09;;;;;;;16.08;6.05;;;;;;;35.09;40.71;99741.75;4988479;28;20238;-63
2023/10/13 10:06:38;;;;;;;14.27;5.55;;;;;;;34.62;39.85;99733.31;4994624;28;20201;-62
2023/10/13 10:09:15;;;;;;;14.27;5.20;;;;;;;32.99;44.78;99729.81;4994741;28;20254;-64
2023/10/13 10:11:57;;;;;;;7.55;4.80;;;;;;;31.62;48.73;99714.34;4981409;28;20234;-61
2023/10/13 10:14:56;;;;;;;13.45;5.70;;;;;;;29.65;56.80;99712.09;4980778;28;20589;-62
2023/10/13 10:17:21;;;;;;;9.93;5.47;;;;;;;27.67;70.83;99702.94;4994624;28;20217;-62
2023/10/13 10:19:48;;;;;;;12.25;6.05;;;;;;;27.21;76.41;99700.09;4994987;28;20546;-67
2023/10/13 10:22:20;;;;;;;7.75;5.53;;;;;;;26.29;88.39;99704.13;4996783;28;20280;-61
2023/10/13 10:25:21;;;;;;;8.93;5.85;;;;;;;26.09;89.71;99703.00;4994313;28;20674;-61
2023/10/13 10:27:56;;;;;;;9.55;6.75;;;;;;;25.76;92.12;99702.78;4993897;28;20258;-61
2023/10/13 10:30:26;;;;;;;10.68;6.15;;;;;;;25.55;94.25;99695.75;4987268;28;20247;-63
2023/10/13 10:32:59;;;;;;;9.00;6.15;;;;;;;25.63;96.51;99698.25;5005900;28;20188;-62
2023/10/13 10:35:29;;;;;;;8.52;6.68;;;;;;;25.86;96.12;99694.53;4994681;28;20592;-61
2023/10/13 10:38:11;;;;;;;10.15;5.40;;;;;;;25.73;94.73;99693.47;4994406;28;20546;-60
2023/10/13 10:40:47;;;;;;;6.25;5.50;;;;;;;25.19;97.89;99686.94;4988752;28;20226;-60
2023/10/13 10:43:17;;;;;;;11.75;6.05;;;;;;;25.27;98.78;99681.56;5002809;28;20245;-60
2023/10/13 10:45:49;;;;;;;6.95;6.03;;;;;;;25.47;98.54;99675.66;4994505;28;20183;-59
2023/10/13 10:48:21;;;;;;;12.85;7.25;;;;;;;25.30;100.00;99664.56;4994132;28;21036;-60
2023/10/13 10:50:56;;;;;;;7.57;6.00;;;;;;;25.00;98.80;99658.66;4989680;28;20234;-59
2023/10/13 10:53:33;;;;;;;10.93;5.72;;;;;;;24.75;99.91;99659.84;5000580;28;20229;-59
2023/10/13 10:56:19;;;;;;;8.75;6.30;;;;;;;24.57;100.00;99656.78;4993484;28;20194;-60
2023/10/13 10:59:04;;;;;;;8.88;5.97;;;;;;;24.63;100.00;99656.03;4989471;28;20191;-60
2023/10/13 11:01:33;;;;;;;11.13;6.72;;;;;;;24.51;100.00;99650.47;4988147;28;20246;-61
2023/10/13 11:04:24;;;;;;;14.00;6.38;;;;;;;24.63;100.00;99641.09;4994960;28;20199;-60
2023/10/13 11:06:58;;;;;;;7.65;5.95;;;;;;;24.92;100.00;99639.38;4989182;28;20188;-60
2023/10/13 11:09:31;;;;;;;10.65;6.28;;;;;;;25.22;99.14;99638.41;4993899;28;20203;-59
2023/10/13 11:12:23;;;;;;;8.65;6.35;;;;;;;25.30;97.10;99632.97;4985297;28;20269;-60
2023/10/13 11:14:50;;;;;;;10.93;5.60;;;;;;;25.45;93.62;99622.38;4993666;28;20187;-60
2023/10/13 11:17:33;;;;;;;15.98;5.47;;;;;;;25.03;91.69;99616.19;4992489;28;20207;-61
2023/10/13 11:20:15;;;;;;;7.70;5.22;;;;;;;25.25;88.81;99606.44;4993913;28;20207;-60
2023/10/13 11:22:46;;;;;;;7.03;5.18;;;;;;;25.34;83.94;99597.38;4981948;28;20234;-60
2023/10/13 11:25:29;;;;;;;8.35;5.45;;;;;;;25.34;87.41;99592.13;4993664;28;20542;-59
2023/10/13 11:27:55;;;;;;;10.32;5.30;;;;;;;25.47;90.45;99591.41;4993269;28;20289;-60
2023/10/13 11:30:25;;;;;;;6.90;5.85;;;;;;;25.26;90.46;99579.09;4966581;28;20180;-60
2023/10/13 11:33:08;;;;;;;9.73;5.70;;;;;;;25.17;91.87;99575.81;4990650;28;20669;-61
2023/10/13 11:38:35;;;;;;;10.25;5.72;;;;;;;25.44;89.00;99576.81;4993287;28;20269;-61
2023/10/13 11:48:41;;;;;;;8.30;5.30;;;;;;;25.53;87.89;99569.56;4992576;28;20226;-60
2023/10/13 11:51:08;;;;;;;11.13;6.03;;;;;;;25.47;89.22;99564.28;4976099;28;20592;-60
2023/10/13 11:53:37;;;;;;;8.77;5.45;;;;;;;25.61;89.33;99563.31;4991008;28;20624;-60
2023/10/13 11:56:08;;;;;;;9.68;5.55;;;;;;;25.56;86.60;99561.28;4993053;28;20279;-60
2023/10/13 11:58:37;;;;;;;11.68;5.55;;;;;;;25.68;87.90;99563.38;4992775;28;20187;-60
2023/10/13 12:12:00;;;;;;;10.35;5.75;;;;;;;25.65;86.56;99550.59;4995447;28;20755;-62
2023/10/13 12:14:29;;;;;;;8.07;4.75;;;;;;;25.59;83.10;99552.19;5006877;28;20646;-62
2023/10/13 12:16:56;;;;;;;8.55;5.80;;;;;;;25.44;84.20;99557.56;4997015;28;20238;-62
2023/10/13 12:19:26;;;;;;;12.55;5.50;;;;;;;25.14;82.61;99553.31;5009702;28;20353;-61
2023/10/13 12:21:55;;;;;;;11.63;5.60;;;;;;;25.02;82.23;99543.50;4999246;28;20234;-62
2023/10/13 12:27:02;;;;;;;10.95;5.05;;;;;;;25.33;81.09;99537.84;5009813;28;20182;-61
2023/10/13 12:29:28;;;;;;;9.68;4.90;;;;;;;25.19;83.47;99546.66;5009612;28;20186;-61
2023/10/13 12:32:12;;;;;;;8.88;5.00;;;;;;;25.22;80.01;99533.94;4999557;28;20280;-60
2023/10/13 12:38:04;;;;;;;7.55;5.18;;;;;;;25.12;76.04;99530.84;5009776;28;20193;-61
2023/10/13 12:51:39;;;;;;;4.93;4.32;;;;;;;25.58;75.37;99508.44;4989751;28;20292;-63
2023/10/13 12:54:13;;;;;;;9.15;4.82;;;;;;;25.87;73.97;99504.66;4983810;28;20201;-63
2023/10/13 12:56:41;;;;;;;10.40;4.93;;;;;;;26.12;74.85;99500.69;4982801;28;20183;-62
2023/10/13 12:59:09;;;;;;;11.63;5.35;;;;;;;26.25;73.54;99493.63;4989724;28;20191;-62
2023/10/13 13:01:34;;;;;;;9.57;4.82;;;;;;;26.18;72.76;99498.06;4984280;28;20807;-63
2023/10/13 13:04:03;;;;;;;8.40;5.18;;;;;;;26.12;77.89;99492.78;4996256;28;20255;-64
2023/10/13 13:06:29;;;;;;;7.57;5.07;;;;;;;26.16;77.09;99492.19;4990743;28;20202;-61
2023/10/13 13:08:56;;;;;;;10.13;5.05;;;;;;;26.00;78.06;99482.00;4991545;28;20222;-61
2023/10/13 13:11:23;;;;;;;9.70;5.07;;;;;;;25.97;80.73;99474.50;4991862;28;20253;-61
2023/10/13 13:13:48;;;;;;;7.15;4.95;;;;;;;25.99;80.10;99473.28;4996988;28;20710;-62
2023/10/13 13:16:14;;;;;;;9.20;5.47;;;;;;;25.88;81.90;99477.31;4992004;28;20187;-62
2023/10/13 13:18:39;;;;;;;6.97;4.70;;;;;;;25.64;83.00;99475.22;4990659;28;20199;-61
2023/10/13 13:21:06;;;;;;;7.70;5.35;;;;;;;25.85;81.76;99476.88;4969991;28;20231;-61
2023/10/13 13:23:32;;;;;;;9.30;5.30;;;;;;;26.12;80.19;99466.44;4985890;28;20215;-62
2023/10/13 13:25:57;;;;;;;9.80;5.00;;;;;;;26.00;79.78;99466.19;4991756;28;20180;-63
2023/10/13 13:28:24;;;;;;;9.80;5.25;;;;;;;25.94;81.37;99454.63;4992048;28;20193;-63
2023/10/13 13:30:50;;;;;;;9.27;5.45;;;;;;;25.91;80.92;99453.22;4987467;28;20231;-63
2023/10/13 13:33:16;;;;;;;7.95;4.93;;;;;;;25.86;82.54;99450.38;5000441;28;20183;-62
2023/10/13 13:35:48;;;;;;;8.15;5.15;;;;;;;25.77;84.14;99455.00;4991850;28;20201;-61
2023/10/13 13:38:21;;;;;;;5.65;4.63;;;;;;;25.51;86.50;99445.19;4992118;28;20183;-63
2023/10/13 13:40:49;;;;;;;8.93;5.10;;;;;;;25.28;88.03;99440.25;4977720;28;20230;-61
2023/10/13 13:43:31;;;;;;;10.20;4.88;;;;;;;25.27;89.00;99438.63;5004219;28;20706;-62
2023/10/13 13:46:00;;;;;;;13.52;5.60;;;;;;;25.32;91.64;99436.19;4995885;28;20580;-61
2023/10/13 13:48:27;;;;;;;9.50;5.70;;;;;;;25.23;91.80;99432.09;4995282;28;20195;-62
2023/10/13 13:50:55;;;;;;;11.32;5.22;;;;;;;25.07;93.00;99433.25;4992114;28;20711;-63
2023/10/13 13:53:27;;;;;;;10.57;5.13;;;;;;;24.81;94.50;99417.13;5003052;28;20262;-62
2023/10/13 13:55:52;;;;;;;7.68;5.13;;;;;;;24.66;95.47;99421.69;4989293;28;20184;-63
2023/10/13 13:58:18;;;;;;;11.23;5.93;;;;;;;24.38;100.00;99414.59;4995686;28;20179;-62
2023/10/13 14:00:48;;;;;;;5.95;5.05;;;;;;;23.92;100.00;99413.19;4990416;28;20242;-63
2023/10/13 14:03:30;;;;;;;10.02;5.60;;;;;;;24.00;100.00;99401.72;5003725;28;20655;-61
2023/10/13 14:05:59;;;;;;;8.25;4.75;;;;;;;23.93;100.00;99391.19;4995303;28;20190;-63
2023/10/13 14:08:27;;;;;;;10.05;5.63;;;;;;;24.01;100.00;99387.59;4994671;28;20211;-62
2023/10/13 14:13:48;;;;;;;9.50;5.20;;;;;;;24.49;90.80;99387.75;4998469;28;20198;-61
2023/10/13 14:16:17;;;;;;;16.10;4.97;;;;;;;24.72;86.34;99384.13;4995200;28;20175;-62
2023/10/13 14:18:45;;;;;;;11.85;5.25;;;;;;;24.87;79.37;99376.09;4993328;28;20234;-62
2023/10/13 14:21:10;;;;;;;11.05;5.38;;;;;;;25.07;79.90;99373.53;4986849;28;20238;-62
2023/10/13 14:23:36;;;;;;;11.65;5.55;;;;;;;25.01;75.33;99370.91;5000900;28;20570;-64
2023/10/13 14:26:01;;;;;;;7.80;4.78;;;;;;;25.04;74.10;99368.66;4994708;28;20652;-63
2023/10/13 14:28:34;;;;;;;8.77;4.45;;;;;;;25.10;69.59;99364.44;4992922;28;20186;-61
2023/10/13 14:31:09;;;;;;;10.02;4.72;;;;;;;25.13;71.32;99359.59;4984922;28;20976;-62
2023/10/13 14:33:36;;;;;;;11.77;4.50;;;;;;;25.15;70.63;99354.13;4995884;28;20182;-61
2023/10/13 14:36:04;;;;;;;15.63;5.32;;;;;;;25.21;67.17;99366.50;4994828;28;20218;-62
2023/10/13 14:38:30;;;;;;;11.23;4.68;;;;;;;25.36;67.41;99357.66;4994008;28;20191;-62
2023/10/13 14:40:58;;;;;;;9.70;4.80;;;;;;;25.28;67.24;99353.38;4989094;28;20230;-60
2023/10/13 14:43:27;;;;;;;8.63;4.50;;;;;;;25.45;64.83;99354.66;4996953;28;20195;-63
2023/10/13 14:45:55;;;;;;;9.50;4.10;;;;;;;25.29;65.61;99350.56;4993513;28;20188;-63
2023/10/13 14:48:23;;;;;;;8.90;4.57;;;;;;;25.30;61.67;99353.97;4994269;28;20274;-61
2023/10/13 14:50:49;;;;;;;8.48;4.68;;;;;;;25.11;60.22;99355.56;4978674;28;20613;-66